createdAt,value
2022-11-19T00:01:21.896Z,99583.33
2022-11-19T00:03:52.421Z,99584.16
2022-11-19T00:06:24.385Z,99578.23
2022-11-19T00:08:50.971Z,99582.00
2022-11-19T00:11:39.338Z,99582.77
2022-11-19T00:14:06.226Z,99583.08
2022-11-19T00:16:32.820Z,99581.30
2022-11-19T00:18:59.138Z,99584.18
2022-11-19T00:21:25.438Z,99577.91
2022-11-19T00:23:55.411Z,99577.18
2022-11-19T00:26:22.599Z,99576.45
2022-11-19T00:28:49.200Z,99569.12
2022-11-19T00:31:16.722Z,99569.16
2022-11-19T00:33:44.405Z,99571.35
2022-11-19T00:36:14.179Z,99572.14
2022-11-19T00:38:41.117Z,99577.59
2022-11-19T00:41:07.492Z,99579.92
2022-11-19T00:43:50.143Z,99577.06
2022-11-19T00:46:22.331Z,99575.70
2022-11-19T00:48:50.630Z,99578.53
2022-11-19T00:51:18.791Z,99575.27
2022-11-19T00:53:45.944Z,99571.98
2022-11-19T00:56:15.084Z,99575.89
2022-11-19T00:58:41.837Z,99575.27
2022-11-19T01:01:09.616Z,99574.08
2022-11-19T01:03:37.835Z,99572.25
2022-11-19T01:06:05.276Z,99575.93
2022-11-19T01:08:31.627Z,99576.02
2022-11-19T01:11:16.386Z,99575.61
2022-11-19T01:13:43.323Z,99574.16
2022-11-19T01:16:13.043Z,99575.92
2022-11-19T01:18:40.715Z,99580.56
2022-11-19T01:21:10.000Z,99583.34
2022-11-19T01:23:37.761Z,99584.17
2022-11-19T01:26:04.331Z,99585.89
2022-11-19T01:28:31.717Z,99588.13
2022-11-19T01:30:58.111Z,99589.00
2022-11-19T01:33:24.814Z,99589.94
2022-11-19T01:35:59.310Z,99591.11
2022-11-19T01:38:26.375Z,99586.49
2022-11-19T01:40:52.742Z,99590.98
2022-11-19T01:43:19.007Z,99590.91
2022-11-19T01:45:53.576Z,99587.69
2022-11-19T01:48:27.459Z,99586.02
2022-11-19T01:50:55.851Z,99585.80
2022-11-19T01:53:27.099Z,99586.98
2022-11-19T01:55:54.426Z,99588.10
2022-11-19T01:58:23.470Z,99588.31
2022-11-19T02:00:50.069Z,99585.29
2022-11-19T02:03:18.152Z,99586.77
2022-11-19T02:05:45.689Z,99589.05
2022-11-19T02:08:47.260Z,99590.08
2022-11-19T02:11:45.435Z,99595.80
2022-11-19T02:14:32.141Z,99594.63
2022-11-19T02:17:22.245Z,99596.09
2022-11-19T02:19:51.579Z,99598.70
2022-11-19T02:22:33.877Z,99600.94
2022-11-19T02:25:16.763Z,99603.05
2022-11-19T02:28:13.926Z,99602.04
2022-11-19T02:30:49.067Z,99600.17
2022-11-19T02:33:40.181Z,99595.86
2022-11-19T02:36:18.891Z,99598.64
2022-11-19T02:38:57.511Z,99594.98
2022-11-19T02:41:55.098Z,99595.50
2022-11-19T02:44:51.132Z,99601.16
2022-11-19T02:47:21.492Z,99608.19
2022-11-19T02:49:50.901Z,99607.77
2022-11-19T02:52:18.185Z,99609.23
2022-11-19T02:54:44.476Z,99608.41
2022-11-19T02:57:12.142Z,99608.59
2022-11-19T02:59:56.208Z,99610.53
2022-11-19T03:02:41.203Z,99608.20
2022-11-19T03:05:13.646Z,99607.42
2022-11-19T03:07:40.018Z,99609.23
2022-11-19T03:10:09.570Z,99604.79
2022-11-19T03:12:49.331Z,99610.09
2022-11-19T03:15:47.531Z,99610.73
2022-11-19T03:18:29.093Z,99606.18
2022-11-19T03:21:14.792Z,99606.98
2022-11-19T03:23:54.309Z,99607.52
2022-11-19T03:26:32.134Z,99610.44
2022-11-19T03:29:02.928Z,99612.23
2022-11-19T03:31:32.364Z,99610.80
2022-11-19T03:34:03.589Z,99611.45
2022-11-19T03:36:34.433Z,99615.09
2022-11-19T03:39:07.643Z,99617.13
2022-11-19T03:41:37.090Z,99617.66
2022-11-19T03:44:11.152Z,99616.71
2022-11-19T03:46:39.215Z,99617.63
2022-11-19T03:49:09.149Z,99613.20
2022-11-19T03:51:54.908Z,99609.89
2022-11-19T03:54:21.346Z,99612.06
2022-11-19T03:56:49.489Z,99614.08
2022-11-19T03:59:15.952Z,99612.38
2022-11-19T04:01:44.995Z,99612.07
2022-11-19T04:04:27.266Z,99613.16
2022-11-19T04:06:53.988Z,99617.21
2022-11-19T04:09:20.665Z,99614.55
2022-11-19T04:14:13.533Z,99624.37
2022-11-19T04:16:39.883Z,99622.31
2022-11-19T04:19:06.181Z,99625.10
2022-11-19T04:21:32.459Z,99621.17
2022-11-19T04:23:58.732Z,99621.40
2022-11-19T04:26:25.139Z,99623.20
2022-11-19T04:28:51.420Z,99624.63
2022-11-19T04:31:18.270Z,99626.02
2022-11-19T04:33:44.785Z,99624.20
2022-11-19T04:36:11.126Z,99622.15
2022-11-19T04:38:38.462Z,99621.52
2022-11-19T04:41:04.993Z,99622.80
2022-11-19T04:43:31.338Z,99621.07
2022-11-19T04:45:57.628Z,99617.97
2022-11-19T04:48:23.931Z,99610.55
2022-11-19T04:50:50.238Z,99609.14
2022-11-19T04:53:16.659Z,99610.00
2022-11-19T04:55:43.051Z,99607.33
2022-11-19T04:58:10.633Z,99607.47
2022-11-19T05:00:36.928Z,99607.30
2022-11-19T05:03:03.280Z,99608.95
2022-11-19T05:05:29.691Z,99607.78
2022-11-19T05:07:55.976Z,99606.97
2022-11-19T05:10:22.259Z,99603.13
2022-11-19T05:12:48.858Z,99600.78
2022-11-19T05:15:15.306Z,99601.08
2022-11-19T05:17:41.617Z,99598.27
2022-11-19T05:20:09.667Z,99595.60
2022-11-19T05:22:36.678Z,99594.48
2022-11-19T05:25:03.554Z,99598.13
2022-11-19T05:27:29.874Z,99599.35
2022-11-19T05:29:56.157Z,99602.25
2022-11-19T05:32:22.549Z,99601.77
2022-11-19T05:34:48.890Z,99603.86
2022-11-19T05:37:15.156Z,99610.89
2022-11-19T05:39:41.497Z,99609.67
2022-11-19T05:42:07.852Z,99614.23
2022-11-19T05:44:34.129Z,99615.62
2022-11-19T05:47:00.515Z,99610.79
2022-11-19T05:49:26.881Z,99615.75
2022-11-19T05:51:53.163Z,99617.73
2022-11-19T05:54:19.496Z,99620.86
2022-11-19T05:56:45.801Z,99622.02
2022-11-19T05:59:12.180Z,99627.85
2022-11-19T06:01:38.560Z,99629.66
2022-11-19T06:04:04.875Z,99631.98
2022-11-19T06:06:31.127Z,99636.05
2022-11-19T06:08:57.378Z,99632.84
2022-11-19T06:11:39.670Z,99634.70
2022-11-19T06:14:05.938Z,99634.80
2022-11-19T06:16:32.318Z,99642.16
2022-11-19T06:18:58.604Z,99643.77
2022-11-19T06:21:25.313Z,99650.35
2022-11-19T06:23:51.547Z,99649.45
2022-11-19T06:26:23.142Z,99648.33
2022-11-19T06:28:49.428Z,99652.20
2022-11-19T06:31:15.767Z,99648.85
2022-11-19T06:33:42.108Z,99655.00
2022-11-19T06:36:08.562Z,99657.70
2022-11-19T06:38:34.858Z,99656.31
2022-11-19T06:41:01.248Z,99660.41
2022-11-19T06:43:28.321Z,99665.41
2022-11-19T06:45:54.962Z,99665.61
2022-11-19T06:48:21.270Z,99663.88
2022-11-19T06:50:47.591Z,99666.76
2022-11-19T06:53:14.043Z,99667.65
2022-11-19T06:55:40.414Z,99666.14
2022-11-19T06:58:07.614Z,99666.77
2022-11-19T07:00:34.995Z,99667.18
2022-11-19T07:03:01.296Z,99670.58
2022-11-19T07:05:27.866Z,99667.71
2022-11-19T07:07:56.738Z,99667.60
2022-11-19T07:10:26.584Z,99666.48
2022-11-19T07:12:52.820Z,99668.95
2022-11-19T07:15:19.074Z,99666.11
2022-11-19T07:17:45.405Z,99669.53
2022-11-19T07:20:12.779Z,99667.32
2022-11-19T07:22:41.512Z,99667.86
2022-11-19T07:25:11.813Z,99670.54
2022-11-19T07:27:39.203Z,99669.90
2022-11-19T07:30:06.953Z,99671.77
2022-11-19T07:32:33.612Z,99674.80
2022-11-19T07:34:59.916Z,99673.97
2022-11-19T07:37:26.281Z,99672.05
2022-11-19T07:39:52.594Z,99673.50
2022-11-19T07:42:34.878Z,99673.95
2022-11-19T07:45:08.880Z,99672.30
2022-11-19T07:47:35.305Z,99671.13
2022-11-19T07:50:02.428Z,99671.08
2022-11-19T07:52:29.930Z,99671.65
2022-11-19T07:54:56.313Z,99671.53
2022-11-19T07:57:29.694Z,99675.79
2022-11-19T07:59:56.704Z,99675.02
2022-11-19T08:02:23.027Z,99674.98
2022-11-19T08:04:49.323Z,99674.29
2022-11-19T08:07:15.925Z,99673.95
2022-11-19T08:09:42.294Z,99671.12
2022-11-19T08:12:08.644Z,99669.64
2022-11-19T08:14:34.991Z,99679.15
2022-11-19T08:17:17.297Z,99678.72
2022-11-19T08:19:43.586Z,99683.33
2022-11-19T08:22:10.915Z,99684.61
2022-11-19T08:24:37.288Z,99683.66
2022-11-19T08:27:04.761Z,99683.02
2022-11-19T08:29:31.584Z,99686.52
2022-11-19T08:31:57.887Z,99686.84
2022-11-19T08:34:24.364Z,99685.16
2022-11-19T08:36:50.752Z,99686.54
2022-11-19T08:39:17.012Z,99687.92
2022-11-19T08:41:59.308Z,99695.08
2022-11-19T08:44:25.714Z,99690.77
2022-11-19T08:46:52.278Z,99690.81
2022-11-19T08:49:18.624Z,99692.30
2022-11-19T08:51:44.905Z,99691.56
2022-11-19T08:54:12.515Z,99697.02
2022-11-19T08:56:38.845Z,99699.84
2022-11-19T08:59:05.079Z,99698.73
2022-11-19T09:01:31.422Z,99700.23
2022-11-19T09:03:57.954Z,99698.75
2022-11-19T09:06:24.261Z,99697.58
2022-11-19T09:08:50.883Z,99693.96
2022-11-19T09:11:19.658Z,99692.27
2022-11-19T09:13:46.064Z,99691.66
2022-11-19T09:16:13.158Z,99689.08
2022-11-19T09:18:41.345Z,99686.64
2022-11-19T09:21:10.448Z,99687.55
2022-11-19T09:23:37.452Z,99691.24
2022-11-19T09:26:08.830Z,99695.02
2022-11-19T09:28:35.719Z,99693.63
2022-11-19T09:31:09.685Z,99695.04
2022-11-19T09:33:38.715Z,99695.52
2022-11-19T09:36:05.331Z,99693.91
2022-11-19T09:38:34.423Z,99688.30
2022-11-19T09:41:16.698Z,99691.27
2022-11-19T09:44:08.899Z,99692.06
2022-11-19T09:46:45.245Z,99696.42
2022-11-19T09:49:24.373Z,99690.77
2022-11-19T09:51:57.731Z,99691.63
2022-11-19T09:54:24.884Z,99688.98
2022-11-19T09:56:57.114Z,99691.31
2022-11-19T09:59:32.651Z,99685.60
2022-11-19T10:01:59.002Z,99686.52
2022-11-19T10:04:29.988Z,99688.95
2022-11-19T10:07:18.409Z,99685.48
2022-11-19T10:09:55.282Z,99685.98
2022-11-19T10:12:43.543Z,99685.21
2022-11-19T10:15:31.909Z,99685.44
2022-11-19T10:18:15.216Z,99679.70
2022-11-19T10:21:21.981Z,99682.88
2022-11-19T10:23:50.433Z,99684.33
2022-11-19T10:26:22.130Z,99683.73
2022-11-19T10:28:54.329Z,99679.83
2022-11-19T10:31:38.849Z,99676.36
2022-11-19T10:34:22.618Z,99675.67
2022-11-19T10:37:03.754Z,99678.53
2022-11-19T10:40:00.937Z,99679.05
2022-11-19T10:42:47.449Z,99678.05
2022-11-19T10:45:30.551Z,99675.60
2022-11-19T10:48:13.818Z,99674.98
2022-11-19T10:50:41.568Z,99677.41
2022-11-19T10:53:21.486Z,99676.84
2022-11-19T10:55:55.077Z,99677.04
2022-11-19T10:58:32.795Z,99674.23
2022-11-19T11:01:02.472Z,99672.12
2022-11-19T11:03:42.903Z,99675.56
2022-11-19T11:06:10.273Z,99672.80
2022-11-19T11:08:53.882Z,99670.56
2022-11-19T11:11:49.678Z,99671.85
2022-11-19T11:14:35.279Z,99669.40
2022-11-19T11:17:03.418Z,99666.90
2022-11-19T11:19:31.517Z,99663.77
2022-11-19T11:21:58.091Z,99667.34
2022-11-19T11:24:40.335Z,99661.48
2022-11-19T11:27:22.707Z,99663.70
2022-11-19T11:29:53.807Z,99667.73
2022-11-19T11:32:29.939Z,99669.15
2022-11-19T11:34:57.058Z,99662.50
2022-11-19T11:37:26.388Z,99658.55
2022-11-19T11:39:55.044Z,99658.17
2022-11-19T11:42:26.324Z,99657.23
2022-11-19T11:44:57.138Z,99656.47
2022-11-19T11:47:32.320Z,99651.16
2022-11-19T11:50:13.765Z,99653.34
2022-11-19T11:52:41.892Z,99645.41
2022-11-19T11:55:14.447Z,99647.23
2022-11-19T11:57:58.006Z,99651.23
2022-11-19T12:00:43.556Z,99653.10
2022-11-19T12:03:18.081Z,99651.05
2022-11-19T12:06:03.352Z,99650.94
2022-11-19T12:09:01.626Z,99653.44
2022-11-19T12:11:55.014Z,99655.96
2022-11-19T12:14:42.226Z,99652.91
2022-11-19T12:17:19.255Z,99653.98
2022-11-19T12:20:01.566Z,99651.86
2022-11-19T12:22:50.987Z,99648.84
2022-11-19T12:25:29.505Z,99648.34
2022-11-19T12:28:19.512Z,99644.56
2022-11-19T12:31:13.471Z,99648.09
2022-11-19T12:33:39.910Z,99645.58
2022-11-19T12:36:22.196Z,99645.73
2022-11-19T12:39:04.403Z,99645.05
2022-11-19T12:41:44.132Z,99641.73
2022-11-19T12:44:32.662Z,99640.52
2022-11-19T12:47:17.244Z,99637.25
2022-11-19T12:49:59.662Z,99636.29
2022-11-19T12:52:51.976Z,99638.73
2022-11-19T12:55:21.189Z,99637.20
2022-11-19T12:58:24.798Z,99639.20
2022-11-19T13:00:58.143Z,99640.23
2022-11-19T13:03:47.733Z,99634.64
2022-11-19T13:06:24.274Z,99635.27
2022-11-19T13:09:00.710Z,99639.85
2022-11-19T13:11:35.763Z,99639.27
2022-11-19T13:14:13.250Z,99638.52
2022-11-19T13:16:41.658Z,99641.59
2022-11-19T13:19:27.085Z,99641.85
2022-11-19T13:21:58.966Z,99644.83
2022-11-19T13:24:37.374Z,99644.86
2022-11-19T13:27:09.045Z,99646.66
2022-11-19T13:29:42.002Z,99642.42
2022-11-19T13:32:40.309Z,99649.29
2022-11-19T13:35:26.598Z,99649.81
2022-11-19T13:38:11.089Z,99654.95
2022-11-19T13:40:51.309Z,99658.75
2022-11-19T13:43:36.247Z,99662.23
2022-11-19T13:46:15.434Z,99666.38
2022-11-19T13:48:57.083Z,99663.19
2022-11-19T13:51:42.475Z,99666.00
2022-11-19T13:54:24.754Z,99671.23
2022-11-19T13:56:55.325Z,99668.33
2022-11-19T13:59:45.422Z,99671.95
2022-11-19T14:02:44.673Z,99673.70
2022-11-19T14:05:26.845Z,99674.67
2022-11-19T14:08:04.977Z,99679.66
2022-11-19T14:11:03.334Z,99679.39
2022-11-19T14:13:51.274Z,99681.64
2022-11-19T14:16:56.664Z,99689.34
2022-11-19T14:19:38.934Z,99691.04
2022-11-19T14:22:53.115Z,99696.08
2022-11-19T14:25:54.066Z,99696.08
2022-11-19T14:28:43.991Z,99701.56
2022-11-19T14:31:10.780Z,99702.63
2022-11-19T14:33:56.566Z,99702.56
2022-11-19T14:36:41.944Z,99701.39
2022-11-19T14:39:29.181Z,99703.81
2022-11-19T14:42:18.986Z,99711.14
2022-11-19T14:45:05.941Z,99716.50
2022-11-19T14:47:35.477Z,99718.52
2022-11-19T14:50:06.403Z,99722.39
2022-11-19T14:52:39.117Z,99721.61
2022-11-19T14:55:20.679Z,99727.90
2022-11-19T14:58:04.794Z,99728.30
2022-11-19T15:00:40.566Z,99728.42
2022-11-19T15:03:14.855Z,99728.33
2022-11-19T15:05:44.799Z,99726.61
2022-11-19T15:08:17.306Z,99724.48
2022-11-19T15:11:02.540Z,99729.67
2022-11-19T15:13:31.516Z,99728.66
2022-11-19T15:16:20.606Z,99730.45
2022-11-19T15:18:58.889Z,99728.71
2022-11-19T15:21:44.265Z,99727.33
2022-11-19T15:24:23.445Z,99725.13
2022-11-19T15:27:05.787Z,99725.90
2022-11-19T15:29:51.068Z,99722.89
2022-11-19T15:32:23.125Z,99715.09
2022-11-19T15:35:18.598Z,99713.27
2022-11-19T15:37:50.914Z,99710.83
2022-11-19T15:40:29.925Z,99715.10
2022-11-19T15:43:32.467Z,99716.34
2022-11-19T15:46:18.138Z,99715.16
2022-11-19T15:49:03.385Z,99713.27
2022-11-19T15:51:36.641Z,99708.31
2022-11-19T15:54:06.599Z,99712.75
2022-11-19T15:56:45.629Z,99711.17
2022-11-19T15:59:13.849Z,99706.74
2022-11-19T16:01:41.139Z,99710.77
2022-11-19T16:04:15.892Z,99714.84
2022-11-19T16:06:44.903Z,99715.91
2022-11-19T16:09:22.568Z,99714.24
2022-11-19T16:12:05.497Z,99714.47
2022-11-19T16:14:47.813Z,99711.92
2022-11-19T16:17:31.559Z,99707.35
2022-11-19T16:20:27.255Z,99708.34
2022-11-19T16:23:05.178Z,99705.77
2022-11-19T16:25:47.360Z,99703.09
2022-11-19T16:28:17.775Z,99705.92
2022-11-19T16:30:50.018Z,99706.30
2022-11-19T16:33:25.291Z,99703.84
2022-11-19T16:36:09.256Z,99702.65
2022-11-19T16:38:37.419Z,99701.64
2022-11-19T16:41:20.451Z,99702.15
2022-11-19T16:43:48.919Z,99702.39
2022-11-19T16:46:19.561Z,99703.33
2022-11-19T16:48:48.867Z,99705.72
2022-11-19T16:51:31.397Z,99709.56
2022-11-19T16:53:57.808Z,99713.20
2022-11-19T16:56:24.754Z,99710.83
2022-11-19T16:58:58.763Z,99712.10
2022-11-19T17:01:29.426Z,99714.27
2022-11-19T17:04:04.282Z,99710.56
2022-11-19T17:06:32.460Z,99714.27
2022-11-19T17:09:00.806Z,99716.27
2022-11-19T17:12:03.688Z,99710.84
2022-11-19T17:14:29.938Z,99711.71
2022-11-19T17:16:56.642Z,99717.06
2022-11-19T17:19:31.430Z,99720.70
2022-11-19T17:21:57.692Z,99726.58
2022-11-19T17:24:27.900Z,99721.17
2022-11-19T17:26:54.987Z,99722.00
2022-11-19T17:29:23.498Z,99719.56
2022-11-19T17:31:53.593Z,99717.90
2022-11-19T17:34:30.572Z,99710.40
2022-11-19T17:36:57.377Z,99709.52
2022-11-19T17:39:25.400Z,99708.98
2022-11-19T17:42:10.786Z,99710.61
2022-11-19T17:44:39.008Z,99704.23
2022-11-19T17:47:23.258Z,99701.98
2022-11-19T17:49:51.395Z,99700.98
2022-11-19T17:52:24.383Z,99697.89
2022-11-19T17:54:53.185Z,99699.96
2022-11-19T17:57:19.751Z,99700.17
2022-11-19T17:59:46.002Z,99700.08
2022-11-19T18:02:15.006Z,99708.13
2022-11-19T18:04:43.450Z,99705.81
2022-11-19T18:07:11.234Z,99710.93
2022-11-19T18:09:38.811Z,99708.02
2022-11-19T18:12:21.077Z,99708.94
2022-11-19T18:14:47.332Z,99713.33
2022-11-19T18:17:15.098Z,99713.12
2022-11-19T18:19:41.685Z,99712.95
2022-11-19T18:22:17.821Z,99713.04
2022-11-19T18:24:49.535Z,99713.92
2022-11-19T18:27:16.455Z,99716.30
2022-11-19T18:29:43.010Z,99716.70
2022-11-19T18:32:15.159Z,99722.71
2022-11-19T18:34:42.578Z,99722.08
2022-11-19T18:37:08.916Z,99721.45
2022-11-19T18:39:35.263Z,99727.82
2022-11-19T18:42:01.599Z,99726.37
2022-11-19T18:44:33.944Z,99726.21
2022-11-19T18:47:06.033Z,99728.88
2022-11-19T18:49:34.243Z,99730.45
2022-11-19T18:52:10.184Z,99729.90
2022-11-19T18:54:36.818Z,99734.13
2022-11-19T18:57:03.664Z,99729.80
2022-11-19T18:59:29.986Z,99733.43
2022-11-19T19:01:56.678Z,99732.46
2022-11-19T19:04:23.345Z,99736.67
2022-11-19T19:06:49.666Z,99736.02
2022-11-19T19:09:19.637Z,99738.34
2022-11-19T19:12:11.381Z,99733.13
2022-11-19T19:14:40.213Z,99735.33
2022-11-19T19:17:06.625Z,99732.88
2022-11-19T19:19:32.949Z,99729.52
2022-11-19T19:21:59.726Z,99732.42
2022-11-19T19:24:26.154Z,99731.97
2022-11-19T19:26:52.515Z,99729.00
2022-11-19T19:29:18.833Z,99727.67
2022-11-19T19:31:45.081Z,99725.94
2022-11-19T19:34:11.343Z,99729.02
2022-11-19T19:36:37.914Z,99729.94
2022-11-19T19:39:04.289Z,99729.64
2022-11-19T19:41:30.634Z,99732.39
2022-11-19T19:44:00.601Z,99736.15
2022-11-19T19:46:26.928Z,99733.52
2022-11-19T19:48:55.003Z,99729.58
2022-11-19T19:51:23.621Z,99728.58
2022-11-19T19:53:50.807Z,99731.91
2022-11-19T19:56:23.181Z,99731.08
2022-11-19T19:58:51.216Z,99727.92
2022-11-19T20:01:23.737Z,99729.59
2022-11-19T20:03:54.484Z,99730.39
2022-11-19T20:06:22.860Z,99730.34
2022-11-19T20:08:49.625Z,99730.54
2022-11-19T20:11:23.813Z,99732.88
2022-11-19T20:13:51.021Z,99734.65
2022-11-19T20:16:19.869Z,99737.11
2022-11-19T20:18:48.518Z,99738.58
2022-11-19T20:21:17.842Z,99733.62
2022-11-19T20:23:45.270Z,99730.52
2022-11-19T20:26:14.639Z,99734.95
2022-11-19T20:28:41.830Z,99739.05
2022-11-19T20:31:10.354Z,99740.23
2022-11-19T20:33:37.861Z,99744.16
2022-11-19T20:36:05.708Z,99739.98
2022-11-19T20:38:35.555Z,99737.52
2022-11-19T20:41:04.386Z,99737.67
2022-11-19T20:43:51.552Z,99736.75
2022-11-19T20:46:20.622Z,99737.33
2022-11-19T20:48:47.567Z,99739.42
2022-11-19T20:51:15.557Z,99737.96
2022-11-19T20:53:42.702Z,99733.79
2022-11-19T20:56:10.162Z,99731.86
2022-11-19T20:58:36.520Z,99730.46
2022-11-19T21:01:09.616Z,99728.63
2022-11-19T21:03:36.779Z,99732.45
2022-11-19T21:06:06.691Z,99731.64
2022-11-19T21:08:35.133Z,99731.84
2022-11-19T21:11:05.041Z,99732.34
2022-11-19T21:13:31.730Z,99731.85
2022-11-19T21:15:58.943Z,99728.98
2022-11-19T21:18:26.221Z,99726.77
2022-11-19T21:21:00.749Z,99729.08
2022-11-19T21:23:28.058Z,99728.19
2022-11-19T21:26:06.688Z,99728.90
2022-11-19T21:28:34.167Z,99729.86
2022-11-19T21:31:01.691Z,99725.60
2022-11-19T21:33:28.039Z,99723.44
2022-11-19T21:35:58.878Z,99719.89
2022-11-19T21:38:25.654Z,99722.91
2022-11-19T21:40:54.923Z,99723.59
2022-11-19T21:43:22.957Z,99725.85
2022-11-19T21:45:51.373Z,99723.72
2022-11-19T21:48:17.662Z,99726.31
2022-11-19T21:50:44.319Z,99723.65
2022-11-19T21:53:13.156Z,99723.96
2022-11-19T21:55:43.958Z,99721.98
2022-11-19T21:58:12.007Z,99727.36
2022-11-19T22:00:38.997Z,99721.64
2022-11-19T22:03:05.829Z,99720.85
2022-11-19T22:05:32.242Z,99722.57
2022-11-19T22:07:59.414Z,99720.96
2022-11-19T22:10:26.723Z,99721.45
2022-11-19T22:12:53.053Z,99722.05
2022-11-19T22:15:19.373Z,99724.02
2022-11-19T22:17:45.837Z,99724.35
2022-11-19T22:20:12.453Z,99723.97
2022-11-19T22:22:44.254Z,99720.38
2022-11-19T22:25:11.946Z,99723.11
2022-11-19T22:27:38.283Z,99724.53
2022-11-19T22:30:06.288Z,99723.16
2022-11-19T22:32:32.970Z,99718.86
2022-11-19T22:34:59.275Z,99718.23
2022-11-19T22:37:25.578Z,99718.72
2022-11-19T22:39:51.905Z,99719.09
2022-11-19T22:42:18.179Z,99721.70
2022-11-19T22:44:44.543Z,99724.25
2022-11-19T22:47:10.814Z,99721.08
2022-11-19T22:49:37.137Z,99716.00
2022-11-19T22:52:03.625Z,99715.30
2022-11-19T22:54:29.912Z,99713.67
2022-11-19T22:56:56.212Z,99717.34
2022-11-19T22:59:22.824Z,99720.52
2022-11-19T23:01:49.315Z,99718.70
2022-11-19T23:04:15.733Z,99716.79
2022-11-19T23:06:42.118Z,99715.40
2022-11-19T23:09:08.534Z,99710.89
2022-11-19T23:11:51.102Z,99714.50
2022-11-19T23:14:17.952Z,99711.39
2022-11-19T23:16:44.621Z,99707.29
2022-11-19T23:19:12.927Z,99707.61
2022-11-19T23:21:40.244Z,99707.23
2022-11-19T23:24:06.801Z,99707.65
2022-11-19T23:26:33.541Z,99705.33
2022-11-19T23:29:00.424Z,99702.00
2022-11-19T23:31:32.724Z,99705.27
2022-11-19T23:33:59.719Z,99703.75
2022-11-19T23:36:31.861Z,99704.24
2022-11-19T23:38:59.115Z,99705.25
2022-11-19T23:41:26.062Z,99703.92
2022-11-19T23:43:54.375Z,99706.65
2022-11-19T23:46:28.507Z,99702.45
2022-11-19T23:48:56.200Z,99704.29
2022-11-19T23:51:25.680Z,99702.16
2022-11-19T23:53:52.836Z,99701.04
2022-11-19T23:56:20.952Z,99704.85
2022-11-19T23:58:48.284Z,99701.85
